Time;durP1;ratioP1;P1;durP2;ratioP2;P2;SDS_P1;SDS_P2;PMS_P1;PMS_P2;Temp;Humidity;BMP_temperature;BMP_pressure;BME280_temperature;BME280_humidity;BME280_pressure;Samples;Min_cycle;Max_cycle;Signal;HPM_P1;HPM_P2
2022/09/13 00:06:58;;;;;;;;;;;;;;;12.12;100.00;100374.69;12772332;23;19924;-65
2022/09/13 00:12:01;;;;;;;;;;;;;;;12.08;100.00;100373.00;12799714;23;19947;-67
2022/09/13 00:17:04;;;;;;;;;;;;;;;12.13;100.00;100370.34;12799756;23;19959;-67
2022/09/13 00:22:09;;;;;;;;;;;;;;;12.08;100.00;100366.97;12799523;23;19991;-65
2022/09/13 00:27:12;;;;;;;;;;;;;;;12.02;100.00;100380.91;12798857;23;20027;-65
2022/09/13 00:32:15;;;;;;;;;;;;;;;11.96;100.00;100370.59;12799454;23;19959;-71
2022/09/13 00:37:19;;;;;;;;;;;;;;;12.10;100.00;100370.38;12817079;23;19991;-71
2022/09/13 00:42:24;;;;;;;;;;;;;;;12.10;100.00;100370.38;12798539;23;20377;-73
2022/09/13 00:47:33;;;;;;;;;;;;;;;12.04;100.00;100371.34;12798442;23;20007;-69
2022/09/13 00:52:38;;;;;;;;;;;;;;;12.01;100.00;100375.75;12799023;23;19947;-68
2022/09/13 00:57:47;;;;;;;;;;;;;;;11.97;100.00;100368.88;12815913;23;20012;-69
2022/09/13 01:02:52;;;;;;;;;;;;;;;11.89;100.00;100365.53;12798290;23;20043;-73
2022/09/13 01:07:58;;;;;;;;;;;;;;;11.80;100.00;100376.06;12798716;23;20279;-70
2022/09/13 01:13:10;;;;;;;;;;;;;;;11.82;100.00;100363.91;12815957;23;19928;-72
2022/09/13 01:18:13;;;;;;;;;;;;;;;11.77;100.00;100368.31;12816165;23;19987;-72
2022/09/13 01:23:33;;;;;;;;;;;;;;;11.71;100.00;100366.66;12798862;23;20227;-72
2022/09/13 01:29:00;;;;;;;;;;;;;;;11.73;100.00;100364.03;12816215;23;19920;-69
2022/09/13 01:34:13;;;;;;;;;;;;;;;11.68;100.00;100364.13;12776205;23;19958;-73
2022/09/13 01:39:21;;;;;;;;;;;;;;;11.66;100.00;100365.00;12818560;23;19940;-71
2022/09/13 01:44:29;;;;;;;;;;;;;;;11.52;100.00;100360.84;12817337;23;19974;-69
2022/09/13 01:49:38;;;;;;;;;;;;;;;11.53;100.00;100352.16;12811621;23;19966;-65
2022/09/13 01:54:45;;;;;;;;;;;;;;;11.41;100.00;100349.72;12812529;23;19987;-66
2022/09/13 01:59:50;;;;;;;;;;;;;;;11.46;100.00;100344.44;12817464;23;19970;-68
2022/09/13 02:04:56;;;;;;;;;;;;;;;11.49;100.00;100352.22;12804199;23;19920;-68
2022/09/13 02:10:02;;;;;;;;;;;;;;;11.44;100.00;100348.81;12804768;23;19931;-69
2022/09/13 02:15:09;;;;;;;;;;;;;;;11.41;100.00;100349.72;12817018;23;19958;-69
2022/09/13 02:20:17;;;;;;;;;;;;;;;11.40;100.00;100342.81;12816789;23;19940;-67
2022/09/13 02:25:22;;;;;;;;;;;;;;;11.27;100.00;100336.03;12816404;23;20043;-64
2022/09/13 02:30:26;;;;;;;;;;;;;;;11.31;100.00;100329.94;12804543;23;19966;-65
2022/09/13 02:35:33;;;;;;;;;;;;;;;11.23;100.00;100329.16;12804488;23;19920;-68
2022/09/13 02:40:39;;;;;;;;;;;;;;;11.26;100.00;100323.06;12804445;23;19920;-67
2022/09/13 02:45:47;;;;;;;;;;;;;;;11.22;100.00;100326.59;12815590;23;19920;-66
2022/09/13 02:50:59;;;;;;;;;;;;;;;11.22;100.00;100330.06;12804391;23;19935;-65
2022/09/13 02:56:06;;;;;;;;;;;;;;;11.18;100.00;100324.94;12814488;23;20263;-65
2022/09/13 03:01:09;;;;;;;;;;;;;;;11.10;100.00;100317.22;12814456;23;19920;-68
2022/09/13 03:06:21;;;;;;;;;;;;;;;11.03;100.00;100307.78;12803348;23;19982;-75
2022/09/13 03:11:31;;;;;;;;;;;;;;;11.00;100.00;100305.25;12814234;23;19955;-70
2022/09/13 03:16:40;;;;;;;;;;;;;;;11.04;100.00;100301.75;12816968;23;19948;-71
2022/09/13 03:21:54;;;;;;;;;;;;;;;11.03;100.00;100294.81;12817291;23;19979;-72
2022/09/13 03:27:05;;;;;;;;;;;;;;;11.00;100.00;100297.44;12816072;23;19952;-68
2022/09/13 03:32:20;;;;;;;;;;;;;;;10.94;100.00;100302.72;12815567;23;19936;-70
2022/09/13 03:37:27;;;;;;;;;;;;;;;10.90;100.00;100295.00;12814685;23;20371;-71
2022/09/13 03:42:32;;;;;;;;;;;;;;;10.85;100.00;100294.19;12814436;23;20047;-70
2022/09/13 03:47:37;;;;;;;;;;;;;;;10.86;100.00;100290.69;12807453;23;19987;-71
2022/09/13 03:52:42;;;;;;;;;;;;;;;10.78;100.00;100284.75;12806728;23;20319;-70
2022/09/13 03:57:48;;;;;;;;;;;;;;;10.79;100.00;100284.72;12813687;23;20300;-69
2022/09/13 04:02:51;;;;;;;;;;;;;;;10.82;100.00;100286.44;12806471;23;19944;-71
2022/09/13 04:07:55;;;;;;;;;;;;;;;10.76;100.00;100278.72;12813737;23;20207;-71
2022/09/13 04:12:59;;;;;;;;;;;;;;;10.67;100.00;100271.91;12806373;23;20043;-71
2022/09/13 04:18:02;;;;;;;;;;;;;;;10.63;100.00;100271.97;12806268;23;19943;-69
2022/09/13 04:23:06;;;;;;;;;;;;;;;10.47;100.00;100279.06;12806296;23;19920;-69
2022/09/13 04:28:09;;;;;;;;;;;;;;;10.61;100.00;100279.78;12805447;23;19921;-68
2022/09/13 04:33:13;;;;;;;;;;;;;;;10.42;100.00;100278.25;12805839;23;19939;-71
2022/09/13 04:38:17;;;;;;;;;;;;;;;10.52;100.00;100284.19;12806169;23;20335;-72
2022/09/13 04:43:20;;;;;;;;;;;;;;;10.37;100.00;100280.03;12806398;23;19920;-69
2022/09/13 04:48:23;;;;;;;;;;;;;;;10.51;100.00;100280.72;12806464;23;19920;-70
2022/09/13 04:53:27;;;;;;;;;;;;;;;10.45;100.00;100280.81;12805639;23;20010;-68
2022/09/13 04:58:31;;;;;;;;;;;;;;;10.34;100.00;100280.94;12805337;23;20277;-70
2022/09/13 05:03:34;;;;;;;;;;;;;;;10.45;100.00;100273.03;12805218;23;19920;-68
2022/09/13 05:08:39;;;;;;;;;;;;;;;10.27;100.00;100286.19;12805750;23;19924;-68
2022/09/13 05:13:42;;;;;;;;;;;;;;;10.23;100.00;100284.50;12804956;23;19920;-70
2022/09/13 05:18:45;;;;;;;;;;;;;;;10.33;100.00;100288.72;12805121;23;19943;-70
2022/09/13 05:23:50;;;;;;;;;;;;;;;10.44;100.00;100276.47;12805281;23;20031;-70
2022/09/13 05:28:53;;;;;;;;;;;;;;;10.54;100.00;100282.44;12804698;23;19999;-70
2022/09/13 05:33:57;;;;;;;;;;;;;;;10.61;100.00;100274.59;12804759;23;20209;-70
2022/09/13 05:39:02;;;;;;;;;;;;;;;10.67;100.00;100282.28;12804391;23;19939;-70
2022/09/13 05:44:25;;;;;;;;;;;;;;;10.61;100.00;100274.59;12804655;23;19920;-71
2022/09/13 05:49:28;;;;;;;;;;;;;;;10.52;100.00;100272.09;12804945;23;20056;-73
2022/09/13 05:54:33;;;;;;;;;;;;;;;10.67;100.00;100271.91;12804257;23;20296;-72
2022/09/13 05:59:36;;;;;;;;;;;;;;;10.60;100.00;100264.19;12804016;23;19943;-72
2022/09/13 06:04:38;;;;;;;;;;;;;;;10.80;100.00;100255.31;12798119;23;19955;-70
2022/09/13 06:09:45;;;;;;;;;;;;;;;10.85;100.00;100243.13;12796616;23;20323;-71
2022/09/13 06:14:48;;;;;;;;;;;;;;;10.92;100.00;100249.97;12797364;23;19967;-71
2022/09/13 06:19:53;;;;;;;;;;;;;;;10.94;100.00;100250.78;12797291;23;20287;-72
2022/09/13 06:24:57;;;;;;;;;;;;;;;10.97;100.00;100250.75;12796526;23;20247;-70
2022/09/13 06:30:00;;;;;;;;;;;;;;;10.97;100.00;100250.75;12796591;23;20011;-69
2022/09/13 06:35:03;;;;;;;;;;;;;;;10.99;100.00;100255.94;12797049;23;20220;-73
2022/09/13 06:40:08;;;;;;;;;;;;;;;10.93;100.00;100250.78;12796896;23;19947;-75
2022/09/13 06:45:11;;;;;;;;;;;;;;;10.91;100.00;100258.63;12796315;23;19963;-72
2022/09/13 06:50:14;;;;;;;;;;;;;;;10.91;100.00;100256.00;12798960;23;20007;-71
2022/09/13 06:55:18;;;;;;;;;;;;;;;11.00;100.00;100258.50;12800775;23;20201;-74
2022/09/13 07:00:21;;;;;;;;;;;;;;;11.11;100.00;100256.59;12801713;23;19991;-70
2022/09/13 07:05:24;;;;;;;;;;;;;;;11.38;100.00;100252.75;12801943;23;19959;-70
2022/09/13 07:10:29;;;;;;;;;;;;;;;11.54;100.00;100252.47;12803146;23;19920;-70
2022/09/13 07:15:36;;;;;;;;;;;;;;;11.61;100.00;100254.09;12801396;23;19947;-72
2022/09/13 07:20:39;;;;;;;;;;;;;;;11.78;100.00;100240.00;12800507;23;20410;-70
2022/09/13 07:25:43;;;;;;;;;;;;;;;11.90;100.00;100240.66;12799864;23;19959;-74
2022/09/13 07:30:46;;;;;;;;;;;;;;;11.96;100.00;100235.34;12800254;23;19928;-72
2022/09/13 07:35:54;;;;;;;;;;;;;;;12.07;100.00;100230.81;12800395;23;19924;-72
2022/09/13 07:40:59;;;;;;;;;;;;;;;12.28;100.00;100229.56;12808461;23;20292;-72
2022/09/13 07:46:03;;;;;;;;;;;;;;;12.32;100.00;100226.84;12801946;23;19971;-70
2022/09/13 07:51:07;;;;;;;;;;;;;;;12.32;100.00;100239.03;12800871;23;19947;-71
2022/09/13 07:56:12;;;;;;;;;;;;;;;12.42;100.00;100246.63;12799944;23;20318;-69
2022/09/13 08:01:17;;;;;;;;;;;;;;;12.45;100.00;100237.91;12809173;23;19924;-71
2022/09/13 08:06:21;;;;;;;;;;;;;;;12.62;100.00;100239.28;12799931;23;20529;-75
2022/09/13 08:11:27;;;;;;;;;;;;;;;12.85;100.00;100235.34;12799750;23;19971;-77
2022/09/13 08:16:30;;;;;;;;;;;;;;;13.03;100.00;100212.38;12808705;23;19999;-72
2022/09/13 08:21:34;;;;;;;;;;;;;;;13.21;100.00;100208.50;12799398;23;19924;-72
2022/09/13 08:26:38;;;;;;;;;;;;;;;13.36;100.00;100214.22;12799499;23;20023;-70
2022/09/13 08:31:41;;;;;;;;;;;;;;;13.53;100.00;100204.22;12801337;23;19920;-70
2022/09/13 08:36:44;;;;;;;;;;;;;;;13.71;100.00;100203.78;12801606;23;19920;-69
2022/09/13 08:42:15;;;;;;;;;;;;;;;13.91;100.00;100193.69;12800358;23;19920;-74
2022/09/13 08:47:41;;;;;;;;;;;;;;;14.15;100.00;100193.94;12735975;23;20212;-71
2022/09/13 08:53:01;;;;;;;;;;;;;;;14.47;100.00;100188.69;12805479;23;19988;-75
2022/09/13 08:58:09;;;;;;;;;;;;;;;14.75;100.00;100189.63;12797969;23;19927;-71
2022/09/13 09:03:19;;;;;;;;;;;;;;;14.99;100.00;100191.50;12798590;23;19995;-70
2022/09/13 09:08:30;;;;;;;;;;;;;;;15.22;100.00;100185.53;12798187;23;19928;-72
2022/09/13 09:13:35;;;;;;;;;;;;;;;15.56;100.00;100173.13;12805284;23;19955;-70
2022/09/13 09:18:42;;;;;;;;;;;;;;;15.77;100.00;100157.53;12804720;23;19967;-74
2022/09/13 09:23:49;;;;;;;;;;;;;;;15.98;100.00;100150.69;12810431;23;19951;-70
2022/09/13 09:28:54;;;;;;;;;;;;;;;16.18;100.00;100146.47;12809763;23;19998;-71
2022/09/13 09:34:05;;;;;;;;;;;;;;;16.42;100.00;100141.22;12805364;23;19958;-71
2022/09/13 09:39:11;;;;;;;;;;;;;;;16.66;100.00;100130.72;12808877;23;19931;-73
2022/09/13 09:44:17;;;;;;;;;;;;;;;16.89;100.00;100129.81;12809158;23;19948;-74
2022/09/13 09:54:49;;;;;;;;;;;;;;;17.33;100.00;100118.38;12807457;23;19924;-80
2022/09/13 09:59:51;;;;;;;;;;;;;;;17.42;100.00;100104.88;12804132;23;19947;-75
2022/09/13 10:04:58;;;;;;;;;;;;;;;17.60;100.00;100104.13;12803636;23;19951;-75
2022/09/13 10:10:04;;;;;;;;;;;;;;;17.78;100.00;100094.63;12807411;23;19974;-73
2022/09/13 10:15:16;;;;;;;;;;;;;;;18.01;99.05;100090.06;12807096;23;19943;-73
2022/09/13 10:20:23;;;;;;;;;;;;;;;18.28;95.87;100080.94;12805402;23;19925;-67
2022/09/13 10:25:27;;;;;;;;;;;;;;;18.49;96.31;100079.13;12799371;23;19920;-73
2022/09/13 10:30:32;;;;;;;;;;;;;;;18.21;95.01;100070.78;12797246;23;20293;-73
2022/09/13 10:35:37;;;;;;;;;;;;;;;17.99;95.50;100080.53;12796994;23;19954;-76
2022/09/13 10:40:41;;;;;;;;;;;;;;;17.88;95.55;100067.03;12799763;23;19924;-75
2022/09/13 10:45:48;;;;;;;;;;;;;;;17.89;93.67;100063.50;12797094;23;19951;-71
2022/09/13 10:51:02;;;;;;;;;;;;;;;17.89;94.24;100058.25;12799803;23;20116;-71
2022/09/13 10:56:07;;;;;;;;;;;;;;;18.01;93.00;100052.44;12798938;23;19952;-70
2022/09/13 11:01:27;;;;;;;;;;;;;;;18.25;91.71;100056.56;12796235;23;19924;-64
2022/09/13 11:06:37;;;;;;;;;;;;;;;18.78;90.12;100052.28;12796355;23;19943;-66
2022/09/13 11:11:43;;;;;;;;;;;;;;;18.60;90.56;100041.81;12816581;23;20216;-65
2022/09/13 11:16:52;;;;;;;;;;;;;;;18.47;87.91;100038.06;12796443;23;19951;-65
2022/09/13 11:22:03;;;;;;;;;;;;;;;18.60;87.56;100036.56;12816662;23;19959;-69
2022/09/13 11:27:11;;;;;;;;;;;;;;;18.99;83.58;100024.09;12816591;23;19932;-67
2022/09/13 11:32:20;;;;;;;;;;;;;;;18.89;80.74;100018.44;12817686;23;20342;-66
2022/09/13 11:37:35;;;;;;;;;;;;;;;18.75;77.34;100018.28;12821549;23;19991;-64
2022/09/13 11:42:44;;;;;;;;;;;;;;;18.65;77.11;100013.53;12822683;23;20279;-66
2022/09/13 11:47:55;;;;;;;;;;;;;;;18.76;74.71;100008.63;12821025;23;19947;-66
2022/09/13 11:53:05;;;;;;;;;;;;;;;18.97;74.43;100003.13;12820152;23;19955;-65
2022/09/13 11:58:12;;;;;;;;;;;;;;;19.04;73.08;99982.63;12799153;23;20375;-65
2022/09/13 12:03:19;;;;;;;;;;;;;;;18.96;72.95;99972.50;12819888;23;19991;-73
2022/09/13 12:08:25;;;;;;;;;;;;;;;18.92;73.70;99965.69;12804674;23;19962;-72
2022/09/13 12:13:30;;;;;;;;;;;;;;;19.11;73.29;99949.81;12826396;23;19920;-70
2022/09/13 12:18:36;;;;;;;;;;;;;;;19.40;71.81;99941.28;12826374;23;19920;-71
2022/09/13 12:23:43;;;;;;;;;;;;;;;19.19;73.10;99943.22;12801512;23;20024;-66
2022/09/13 12:28:48;;;;;;;;;;;;;;;19.04;74.70;99930.88;12818346;23;19958;-68
2022/09/13 12:33:52;;;;;;;;;;;;;;;18.83;75.83;99910.06;12819310;23;19920;-65
2022/09/13 12:39:07;;;;;;;;;;;;;;;18.63;75.76;99903.19;12819144;23;19963;-72
2022/09/13 12:44:28;;;;;;;;;;;;;;;18.46;76.64;99908.44;12818258;23;19924;-71
2022/09/13 12:49:51;;;;;;;;;;;;;;;18.30;77.42;99915.31;12800010;23;19952;-71
2022/09/13 12:55:16;;;;;;;;;;;;;;;18.19;78.07;99918.47;12800637;23;19998;-71
2022/09/13 13:00:43;;;;;;;;;;;;;;;18.13;79.16;99902.16;12798827;23;20427;-62
2022/09/13 13:05:48;;;;;;;;;;;;;;;18.15;79.95;99900.31;12796992;23;19954;-64
2022/09/13 13:11:02;;;;;;;;;;;;;;;18.10;80.92;99905.75;12797756;23;19999;-67
2022/09/13 13:16:20;;;;;;;;;;;;;;;18.06;81.77;99888.47;12812327;23;20007;-65
2022/09/13 13:21:31;;;;;;;;;;;;;;;17.99;82.74;99891.44;12794450;23;20015;-65
2022/09/13 13:26:45;;;;;;;;;;;;;;;17.92;83.85;99877.78;12797236;23;20020;-65
2022/09/13 13:32:07;;;;;;;;;;;;;;;17.90;84.84;99863.84;12809660;23;19928;-62
2022/09/13 13:37:29;;;;;;;;;;;;;;;17.85;86.08;99859.75;12796909;23;19928;-65
2022/09/13 13:42:37;;;;;;;;;;;;;;;17.93;87.29;99855.81;12797404;23;20609;-68
2022/09/13 13:48:01;;;;;;;;;;;;;;;18.06;86.41;99856.97;12797547;23;19943;-64
2022/09/13 13:53:20;;;;;;;;;;;;;;;18.08;87.51;99856.88;12797058;23;19971;-66
2022/09/13 13:58:29;;;;;;;;;;;;;;;18.05;88.45;99844.72;12805886;23;19982;-66
2022/09/13 14:03:41;;;;;;;;;;;;;;;17.99;89.02;99863.44;12797458;23;19955;-64
2022/09/13 14:08:52;;;;;;;;;;;;;;;17.92;89.56;99840.16;12806170;23;20319;-66
2022/09/13 14:14:04;;;;;;;;;;;;;;;17.89;90.43;99853.44;12805610;23;20002;-65
2022/09/13 14:19:17;;;;;;;;;;;;;;;17.90;91.21;99840.22;12799493;23;19924;-65
2022/09/13 14:24:22;;;;;;;;;;;;;;;17.90;91.53;99819.22;12805662;23;19920;-66
2022/09/13 14:29:27;;;;;;;;;;;;;;;18.01;91.97;99823.94;12797521;23;19924;-70
2022/09/13 14:34:31;;;;;;;;;;;;;;;17.97;92.86;99810.13;12796780;23;20212;-67
2022/09/13 14:39:34;;;;;;;;;;;;;;;17.97;94.35;99815.38;12797058;23;19944;-67
2022/09/13 14:44:43;;;;;;;;;;;;;;;17.92;95.12;99799.00;12795973;23;19921;-68
2022/09/13 14:49:48;;;;;;;;;;;;;;;17.90;95.58;99795.59;12797058;23;19939;-67
2022/09/13 14:54:53;;;;;;;;;;;;;;;17.86;95.56;99791.41;12795905;23;20197;-66
2022/09/13 15:00:00;;;;;;;;;;;;;;;17.84;96.44;99784.53;12795593;23;20316;-66
2022/09/13 15:05:07;;;;;;;;;;;;;;;17.80;96.72;99781.22;12804349;23;19924;-67
2022/09/13 15:10:20;;;;;;;;;;;;;;;17.74;97.12;99781.50;12806139;23;20371;-65
2022/09/13 15:15:26;;;;;;;;;;;;;;;17.69;97.54;99770.38;12800520;23;19920;-67
2022/09/13 15:20:30;;;;;;;;;;;;;;;17.65;98.03;99770.59;12800091;23;19951;-68
2022/09/13 15:25:33;;;;;;;;;;;;;;;17.62;98.70;99768.97;12799489;23;19991;-68
2022/09/13 15:30:41;;;;;;;;;;;;;;;17.60;98.77;99760.31;12799723;23;19963;-70
2022/09/13 15:35:44;;;;;;;;;;;;;;;17.60;99.30;99762.94;12809544;23;19955;-70
2022/09/13 15:40:57;;;;;;;;;;;;;;;17.61;99.95;99756.78;12801547;23;19925;-68
2022/09/13 15:46:01;;;;;;;;;;;;;;;17.62;100.00;99755.84;12810813;23;19948;-69
2022/09/13 15:51:07;;;;;;;;;;;;;;;17.56;100.00;99756.16;12799962;23;19963;-68
2022/09/13 15:56:13;;;;;;;;;;;;;;;17.51;100.00;99763.41;12799892;23;19954;-69
2022/09/13 16:01:17;;;;;;;;;;;;;;;17.52;100.00;99761.59;12772811;23;19924;-69
2022/09/13 16:06:20;;;;;;;;;;;;;;;17.49;100.00;99749.50;12799306;23;19920;-71
2022/09/13 16:11:26;;;;;;;;;;;;;;;17.44;100.00;99734.84;12808767;23;19991;-70
2022/09/13 16:16:30;;;;;;;;;;;;;;;17.39;100.00;99732.47;12799026;23;19944;-69
2022/09/13 16:21:34;;;;;;;;;;;;;;;17.34;100.00;99727.41;12800075;23;19995;-71
2022/09/13 16:26:37;;;;;;;;;;;;;;;17.28;100.00;99721.63;12799609;23;19920;-66
2022/09/13 16:31:41;;;;;;;;;;;;;;;17.22;100.00;99714.88;12798567;23;19970;-67
2022/09/13 16:36:44;;;;;;;;;;;;;;;17.20;100.00;99713.28;12798727;23;19924;-70
2022/09/13 16:41:47;;;;;;;;;;;;;;;17.20;100.00;99710.66;12798853;23;19947;-70
2022/09/13 16:46:51;;;;;;;;;;;;;;;17.20;100.00;99708.03;12798232;23;19999;-68
2022/09/13 16:51:58;;;;;;;;;;;;;;;17.16;100.00;99709.94;12798177;23;20028;-71
2022/09/13 16:57:02;;;;;;;;;;;;;;;17.11;100.00;99706.69;12799317;23;19954;-68
2022/09/13 17:02:07;;;;;;;;;;;;;;;17.09;100.00;99705.03;12800072;23;19932;-68
2022/09/13 17:07:10;;;;;;;;;;;;;;;17.05;100.00;99706.13;12800877;23;19935;-69
2022/09/13 17:12:14;;;;;;;;;;;;;;;17.01;100.00;99704.56;12799645;23;20181;-69
2022/09/13 17:17:19;;;;;;;;;;;;;;;17.00;100.00;99702.84;12797811;23;19974;-74
2022/09/13 17:22:22;;;;;;;;;;;;;;;16.97;100.00;99696.00;12798181;23;19991;-69
2022/09/13 17:27:25;;;;;;;;;;;;;;;16.96;100.00;99691.66;12797465;23;19944;-72
2022/09/13 17:32:30;;;;;;;;;;;;;;;16.91;100.00;99682.31;12797206;23;19956;-69
2022/09/13 17:37:34;;;;;;;;;;;;;;;16.90;100.00;99688.47;12797914;23;19943;-71
2022/09/13 17:42:37;;;;;;;;;;;;;;;16.90;100.00;99693.72;12797345;23;20256;-71
2022/09/13 17:47:42;;;;;;;;;;;;;;;16.89;100.00;99692.03;12797573;23;20300;-71
2022/09/13 17:52:45;;;;;;;;;;;;;;;16.85;100.00;99685.22;12797186;23;19920;-73
2022/09/13 17:57:50;;;;;;;;;;;;;;;16.86;100.00;99694.78;12798998;23;19932;-71
2022/09/13 18:02:55;;;;;;;;;;;;;;;16.80;100.00;99684.59;12798590;23;19944;-71
2022/09/13 18:07:58;;;;;;;;;;;;;;;16.79;100.00;99696.00;12797168;23;19930;-70
2022/09/13 18:13:01;;;;;;;;;;;;;;;16.80;100.00;99690.69;12796976;23;20333;-70
2022/09/13 18:18:05;;;;;;;;;;;;;;;16.80;100.00;99701.16;12797021;23;19999;-71
2022/09/13 18:23:08;;;;;;;;;;;;;;;16.80;100.00;99698.53;12798273;23;20528;-76
2022/09/13 18:28:11;;;;;;;;;;;;;;;16.76;100.00;99690.88;12799628;23;19996;-68
2022/09/13 18:33:19;;;;;;;;;;;;;;;16.72;100.00;99671.00;12798398;23;20014;-69
2022/09/13 18:38:22;;;;;;;;;;;;;;;16.72;100.00;99668.38;12811224;23;19920;-68
2022/09/13 18:43:26;;;;;;;;;;;;;;;16.70;100.00;99663.19;12797798;23;19939;-70
2022/09/13 18:48:33;;;;;;;;;;;;;;;16.70;100.00;99657.09;12796553;23;19951;-72
2022/09/13 18:53:36;;;;;;;;;;;;;;;16.71;100.00;99645.69;12810076;23;19955;-69
2022/09/13 18:58:42;;;;;;;;;;;;;;;16.67;100.00;99641.53;12796858;23;19951;-74
2022/09/13 19:03:50;;;;;;;;;;;;;;;16.65;100.00;99633.72;12795206;23;19931;-68
2022/09/13 19:08:55;;;;;;;;;;;;;;;16.64;100.00;99629.41;12810182;23;19944;-70
2022/09/13 19:13:59;;;;;;;;;;;;;;;16.65;100.00;99638.13;12809948;23;20295;-73
2022/09/13 19:19:07;;;;;;;;;;;;;;;16.68;100.00;99632.72;12810239;23;19924;-74
2022/09/13 19:24:14;;;;;;;;;;;;;;;16.65;100.00;99622.41;12796342;23;19951;-69
2022/09/13 19:29:21;;;;;;;;;;;;;;;16.63;100.00;99619.00;12797239;23;19944;-71
2022/09/13 19:34:27;;;;;;;;;;;;;;;16.60;100.00;99619.16;12795942;23;19924;-69
2022/09/13 19:39:30;;;;;;;;;;;;;;;16.62;100.00;99612.06;12796121;23;19920;-71
2022/09/13 19:44:35;;;;;;;;;;;;;;;16.63;100.00;99608.50;12795739;23;19924;-72
2022/09/13 19:49:40;;;;;;;;;;;;;;;16.65;100.00;99602.25;12797933;23;19995;-70
2022/09/13 19:54:44;;;;;;;;;;;;;;;16.66;100.00;99595.25;12812430;23;20383;-70
2022/09/13 19:59:51;;;;;;;;;;;;;;;16.65;100.00;99585.72;12800957;23;20162;-71
2022/09/13 20:04:56;;;;;;;;;;;;;;;16.63;100.00;99591.03;12812064;23;19999;-73
2022/09/13 20:10:01;;;;;;;;;;;;;;;16.61;100.00;99586.78;12800883;23;20565;-74
2022/09/13 20:15:06;;;;;;;;;;;;;;;16.60;100.00;99578.06;12799615;23;20046;-71
2022/09/13 20:20:11;;;;;;;;;;;;;;;16.61;100.00;99577.16;12799061;23;20007;-71
2022/09/13 20:25:15;;;;;;;;;;;;;;;16.56;100.00;99571.28;12799006;23;19923;-74
2022/09/13 20:30:18;;;;;;;;;;;;;;;16.53;100.00;99560.09;12798743;23;19924;-71
2022/09/13 20:35:23;;;;;;;;;;;;;;;16.52;100.00;99566.22;12799168;23;20011;-73
2022/09/13 20:40:27;;;;;;;;;;;;;;;16.54;100.00;99557.41;12814476;23;19951;-73
2022/09/13 20:45:30;;;;;;;;;;;;;;;16.51;100.00;99547.06;12798585;23;20003;-71
2022/09/13 20:50:37;;;;;;;;;;;;;;;16.57;100.00;99545.91;12798472;23;19944;-75
2022/09/13 20:55:40;;;;;;;;;;;;;;;16.58;100.00;99534.53;12814677;23;20272;-67
2022/09/13 21:00:44;;;;;;;;;;;;;;;16.59;100.00;99536.22;12799179;23;20335;-71
2022/09/13 21:05:48;;;;;;;;;;;;;;;16.62;100.00;99526.44;12798467;23;19920;-71
2022/09/13 21:10:59;;;;;;;;;;;;;;;16.66;100.00;99519.28;12798826;23;19920;-72
2022/09/13 21:16:03;;;;;;;;;;;;;;;16.68;100.00;99525.28;12816923;23;19920;-72
2022/09/13 21:21:08;;;;;;;;;;;;;;;16.73;100.00;99525.91;12800129;23;20013;-72
2022/09/13 21:26:12;;;;;;;;;;;;;;;16.74;100.00;99519.78;12815392;23;19978;-72
2022/09/13 21:31:16;;;;;;;;;;;;;;;16.72;100.00;99513.75;12798419;23;19922;-72
2022/09/13 21:36:25;;;;;;;;;;;;;;;16.71;100.00;99512.03;12815168;23;19968;-74
2022/09/13 21:41:28;;;;;;;;;;;;;;;16.65;100.00;99507.94;12797642;23;20004;-72
2022/09/13 21:46:33;;;;;;;;;;;;;;;16.57;100.00;99520.56;12798057;23;20319;-75
2022/09/13 21:51:41;;;;;;;;;;;;;;;16.57;100.00;99522.31;12798429;23;19931;-75
2022/09/13 21:56:48;;;;;;;;;;;;;;;16.58;100.00;99509.19;12797293;23;19931;-75
2022/09/13 22:01:52;;;;;;;;;;;;;;;16.53;100.00;99508.53;12814416;23;19995;-73
2022/09/13 22:06:57;;;;;;;;;;;;;;;16.58;100.00;99510.94;12797873;23;19978;-74
2022/09/13 22:12:00;;;;;;;;;;;;;;;16.58;100.00;99506.56;12796878;23;20383;-74
2022/09/13 22:17:03;;;;;;;;;;;;;;;16.50;100.00;99497.38;12796961;23;19920;-72
2022/09/13 22:22:08;;;;;;;;;;;;;;;16.45;100.00;99494.91;12796824;23;19948;-74
2022/09/13 22:27:11;;;;;;;;;;;;;;;16.44;100.00;99490.63;12796860;23;19924;-64
2022/09/13 22:32:14;;;;;;;;;;;;;;;16.38;100.00;99487.41;12797321;23;20356;-65
2022/09/13 22:37:20;;;;;;;;;;;;;;;16.31;100.00;99486.88;12797016;23;21262;-66
2022/09/13 22:42:23;;;;;;;;;;;;;;;16.26;100.00;99482.75;12799377;23;19940;-66
2022/09/13 22:47:27;;;;;;;;;;;;;;;16.26;100.00;99488.84;12808247;23;19924;-65
2022/09/13 22:52:32;;;;;;;;;;;;;;;16.25;100.00;99481.06;12816840;23;19970;-64
2022/09/13 22:57:35;;;;;;;;;;;;;;;16.25;100.00;99481.06;12797257;23;19996;-66
2022/09/13 23:02:38;;;;;;;;;;;;;;;16.28;100.00;99480.91;12796228;23;20250;-66
2022/09/13 23:07:48;;;;;;;;;;;;;;;16.31;100.00;99481.63;12797186;23;20435;-69
2022/09/13 23:12:51;;;;;;;;;;;;;;;16.27;100.00;99474.00;12796460;23;20312;-66
2022/09/13 23:17:54;;;;;;;;;;;;;;;16.25;100.00;99478.44;12816292;23;20351;-64
2022/09/13 23:22:58;;;;;;;;;;;;;;;16.29;100.00;99477.41;12816869;23;19955;-73
2022/09/13 23:28:01;;;;;;;;;;;;;;;16.32;100.00;99469.38;12815990;23;19931;-64
2022/09/13 23:33:04;;;;;;;;;;;;;;;16.27;100.00;99479.22;12799488;23;19963;-63
2022/09/13 23:38:10;;;;;;;;;;;;;;;16.31;100.00;99472.94;12820365;23;19999;-63
2022/09/13 23:43:13;;;;;;;;;;;;;;;16.28;100.00;99480.91;12803918;23;19927;-72
2022/09/13 23:48:16;;;;;;;;;;;;;;;16.29;100.00;99475.59;12827129;23;19931;-72
2022/09/13 23:53:20;;;;;;;;;;;;;;;16.22;100.00;99470.75;12827184;23;20007;-72
2022/09/13 23:58:24;;;;;;;;;;;;;;;16.19;100.00;99476.97;12827660;23;20306;-73
